METAR Data
IDs: Format: Raw Decoded Include TAF

Data at: 0156 UTC 24 Oct 2019

METAR for:KOLZ (Oelwein Muni, IA, US)
Text:KOLZ 240135Z AUTO 36009KT 6SM BR FEW005 SCT009 BKN021 03/03 A3005 RMK A01
Temperature: 3.0°C ( 37°F)
Dewpoint: 3.0°C ( 37°F) [RH = 100%]
Pressure (altimeter):30.05 inches Hg (1017.7 mb)
Winds:from the N (360 degrees) at 10 MPH (9 knots; 4.6 m/s)
Visibility: 6 sm ( 10 km)
Ceiling:2100 feet AGL
Clouds: few clouds at 500 feet AGL, scattered clouds at 900 feet AGL, broken clouds at 2100 feet AGL
Weather:BR (mist)
QC Flag:automated observation with no human augmentation